Time;durP1;ratioP1;P1;durP2;ratioP2;P2;SDS_P1;SDS_P2;PMS_P1;PMS_P2;Temp;Humidity;BMP_temperature;BMP_pressure;BME280_temperature;BME280_humidity;BME280_pressure;Samples;Min_cycle;Max_cycle;Signal;HPM_P1;HPM_P2
2021/04/22 00:00:08;;;;;;;27.67;4.60;;;4.60;99.90;;;-143.32;84.26;55277.25;4900722;29;20894;-86
2021/04/22 00:02:35;;;;;;;31.77;3.83;;;4.60;99.90;;;-143.32;84.58;55238.84;4900753;29;20472;-86
2021/04/22 00:05:09;;;;;;;21.27;4.70;;;4.50;1.00;;;-143.32;85.13;55291.38;4900396;29;20452;-87
2021/04/22 00:07:36;;;;;;;22.60;4.63;;;4.50;1.00;;;-143.32;85.75;55283.31;4900722;29;20532;-88
2021/04/22 00:10:07;;;;;;;34.73;5.30;;;4.40;1.00;;;-143.32;85.38;55263.09;4896031;29;20531;-89
2021/04/22 00:12:34;;;;;;;25.63;3.93;;;4.40;1.00;;;-143.32;85.82;55293.41;4886887;29;20959;-87
2021/04/22 00:15:00;;;;;;;17.20;3.77;;;4.40;1.00;;;-143.32;86.18;55265.13;4900231;29;20456;-88
2021/04/22 00:17:27;;;;;;;20.10;3.10;;;4.30;1.00;;;-143.32;86.53;55289.38;4900393;29;20847;-88
2021/04/22 00:19:54;;;;;;;13.67;3.43;;;4.30;1.00;;;-143.32;86.59;55228.75;4900358;29;20531;-89
2021/04/22 00:22:21;;;;;;;24.67;4.57;;;4.30;1.00;;;-143.32;86.79;55273.19;4900317;29;20456;-88
2021/04/22 00:24:48;;;;;;;21.80;4.90;;;4.30;1.00;;;-143.32;86.97;55230.75;4899985;29;20504;-86
2021/04/22 00:27:14;;;;;;;27.20;4.13;;;4.20;56.50;;;-143.32;86.79;55267.13;4899979;29;20531;-87
2021/04/22 00:29:41;;;;;;;23.17;4.40;;;4.20;1.00;;;-143.32;86.86;55277.25;4900537;29;20484;-86
2021/04/22 00:32:08;;;;;;;17.57;3.63;;;4.20;1.00;;;-143.32;86.85;55269.16;4899867;29;20547;-89
2021/04/22 00:34:34;;;;;;;16.63;3.60;;;4.20;32.20;;;-143.32;86.93;55253.00;4900172;29;20879;-87
2021/04/22 00:37:02;;;;;;;33.17;4.60;;;4.20;8.30;;;-143.32;87.22;55214.59;4899955;29;20459;-87
2021/04/22 00:39:28;;;;;;;27.07;4.13;;;4.10;30.00;;;-143.32;87.56;55265.13;4900030;29;20534;-86
2021/04/22 00:41:55;;;;;;;20.67;3.60;;;4.10;99.90;;;-143.32;87.60;55297.44;4900016;29;20824;-88
2021/04/22 00:44:21;;;;;;;20.63;4.20;;;4.00;99.90;;;-143.32;88.17;55279.25;4899811;29;20504;-86
2021/04/22 00:46:49;;;;;;;17.00;3.60;;;4.00;99.90;;;-143.32;88.02;55261.06;4899938;29;20857;-89
2021/04/22 00:49:17;;;;;;;18.50;4.17;;;4.00;99.90;;;-143.32;88.41;55271.19;4899880;29;20804;-88
2021/04/22 00:51:44;;;;;;;16.80;3.87;;;3.90;99.90;;;-143.32;88.20;55244.91;4899798;29;20483;-87
2021/04/22 00:54:12;;;;;;;18.07;3.47;;;4.00;99.90;;;-143.32;88.33;55265.13;4899794;29;20534;-86
2021/04/22 00:56:39;;;;;;;31.60;5.30;;;4.00;99.90;;;-143.32;88.28;55269.16;4899299;29;20508;-87
2021/04/22 00:59:05;;;;;;;24.83;4.33;;;3.90;99.90;;;-143.32;88.36;55271.19;4899635;29;20491;-86
2021/04/22 01:01:32;;;;;;;28.97;4.83;;;4.00;99.90;;;-143.32;88.94;55285.31;4899585;29;20452;-86
2021/04/22 01:03:59;;;;;;;19.33;4.60;;;3.90;99.90;;;-143.32;88.84;55246.94;4899552;29;20484;-86
2021/04/22 01:06:26;;;;;;;33.17;4.57;;;3.90;1.00;;;-143.32;89.05;55275.22;4899591;29;20955;-87
2021/04/22 01:08:52;;;;;;;16.53;3.67;;;3.80;1.00;;;-143.32;88.92;55255.00;4899196;29;20488;-87
2021/04/22 01:11:20;;;;;;;18.70;3.87;;;3.80;1.00;;;-143.32;89.08;55277.25;4899458;29;20451;-86
2021/04/22 01:13:47;;;;;;;27.90;5.07;;;3.80;1.00;;;-143.32;89.24;55244.91;4899109;29;20547;-88
2021/04/22 01:16:14;;;;;;;17.30;4.13;;;3.80;1.00;;;-143.32;89.31;55281.28;4899086;29;20494;-86
2021/04/22 01:18:41;;;;;;;16.93;3.80;;;3.80;1.00;;;-143.32;89.40;55289.38;4899221;29;20555;-87
2021/04/22 01:21:15;;;;;;;22.00;4.37;;;3.70;1.00;;;-143.32;89.95;55271.19;4899259;29;20476;-88
2021/04/22 01:23:42;;;;;;;24.10;3.97;;;3.60;1.00;;;-143.32;90.30;55257.03;4899255;29;20447;-88
2021/04/22 01:26:09;;;;;;;26.07;4.53;;;3.70;1.00;;;-143.32;90.66;55242.88;4898952;29;20971;-86
2021/04/22 01:28:36;;;;;;;19.27;4.77;;;3.60;99.90;;;-143.32;90.51;55250.97;4899260;29;20448;-88
2021/04/22 01:31:02;;;;;;;21.53;4.03;;;3.60;99.90;;;-143.32;90.89;55299.47;4899698;29;20456;-86
2021/04/22 01:33:29;;;;;;;17.87;4.80;;;3.50;99.90;;;-143.32;90.78;55250.97;4898784;29;20460;-85
2021/04/22 01:35:58;;;;;;;16.43;4.20;;;3.50;99.90;;;-143.32;90.88;55285.31;4899099;29;20536;-89
2021/04/22 01:38:27;;;;;;;20.70;4.27;;;3.40;99.90;;;-143.32;91.22;55269.16;4899527;29;20851;-88
2021/04/22 01:40:55;;;;;;;20.33;4.83;;;3.30;99.90;;;-143.32;91.25;55293.41;4898887;29;20496;-86
2021/04/22 01:43:22;;;;;;;31.13;5.40;;;3.30;99.90;;;-143.32;91.86;55295.44;4898976;29;20456;-88
2021/04/22 01:45:49;;;;;;;34.00;5.17;;;3.20;1.00;;;-143.32;92.00;55283.31;4898600;29;20487;-87
2021/04/22 01:48:16;;;;;;;16.37;4.03;;;3.20;1.00;;;-143.32;92.45;55261.06;4898862;29;20440;-86
2021/04/22 01:50:43;;;;;;;24.07;5.50;;;3.10;99.90;;;-143.32;93.15;55265.13;4898614;29;20452;-88
2021/04/22 01:53:10;;;;;;;19.80;4.67;;;3.10;99.90;;;-143.32;92.96;55257.03;4898834;29;20479;-86
2021/04/22 01:55:41;;;;;;;33.13;5.10;;;3.10;99.90;;;-143.32;93.10;55255.00;4898835;29;20820;-88
2021/04/22 01:58:15;;;;;;;22.70;5.07;;;3.30;1.00;;;-143.32;93.41;55255.00;4899239;29;20820;-87
2021/04/22 02:00:50;;;;;;;22.30;5.27;;;3.10;1.00;;;-143.32;93.60;55287.34;4898821;29;20444;-88
2021/04/22 02:03:17;;;;;;;26.50;4.57;;;3.10;1.00;;;-143.32;93.49;55263.09;4899193;29;20491;-87
2021/04/22 02:05:44;;;;;;;18.00;5.80;;;3.00;1.00;;;-143.32;93.77;55297.44;4898644;29;20456;-87
2021/04/22 02:08:15;;;;;;;17.53;4.50;;;3.00;1.00;;;-143.32;93.76;55253.00;4889599;29;20469;-87
2021/04/22 02:10:44;;;;;;;36.77;4.70;;;3.00;99.90;;;-143.32;93.75;55273.19;4879426;29;20917;-88
2021/04/22 02:13:13;;;;;;;25.17;5.37;;;2.90;23.60;;;-143.32;94.25;55271.19;4879982;29;20556;-88
2021/04/22 02:15:41;;;;;;;23.20;4.77;;;2.90;99.90;;;-143.32;94.25;55303.50;4879742;29;20461;-87
2021/04/22 02:18:08;;;;;;;25.80;5.43;;;2.90;99.90;;;-143.32;94.32;55283.31;4879521;29;20497;-86
2021/04/22 02:20:35;;;;;;;16.40;4.53;;;2.90;1.00;;;-143.32;94.06;55250.97;4879883;29;20475;-87
2021/04/22 02:23:03;;;;;;;22.20;5.03;;;2.90;1.00;;;-143.32;94.57;55255.00;4879902;29;20489;-87
2021/04/22 02:29:11;;;;;;;26.13;6.03;;;2.80;1.00;;;-143.32;94.74;55255.00;4879676;29;20768;-87
2021/04/22 02:31:38;;;;;;;24.63;5.17;;;2.80;97.00;;;-143.32;95.27;55216.63;4879789;29;20449;-87
2021/04/22 02:34:07;;;;;;;19.60;4.63;;;2.70;99.90;;;-143.32;95.34;55271.19;4879815;29;20508;-86
2021/04/22 02:39:20;;;;;;;27.90;5.03;;;2.70;1.00;;;-143.32;95.66;55271.19;4875269;29;20488;-88
2021/04/22 02:41:47;;;;;;;21.80;4.40;;;2.70;1.00;;;-143.32;95.63;55248.94;4879697;29;20464;-88
2021/04/22 02:44:14;;;;;;;26.00;5.20;;;2.70;1.00;;;-143.32;95.86;55299.47;4879386;29;20530;-86
2021/04/22 02:46:41;;;;;;;37.97;5.40;;;2.60;1.00;;;-143.32;95.38;55261.06;4879503;29;20476;-88
2021/04/22 02:49:10;;;;;;;31.87;6.30;;;2.70;1.00;;;-143.32;95.47;55263.09;4879659;29;20525;-87
2021/04/22 02:51:37;;;;;;;33.47;5.63;;;2.70;99.90;;;-143.32;95.62;55261.06;4879275;29;20499;-89
2021/04/22 02:54:04;;;;;;;22.27;5.47;;;2.60;1.00;;;-143.32;96.14;55281.28;4879522;29;20485;-86
2021/04/22 02:56:31;;;;;;;19.60;4.67;;;2.60;99.90;;;-143.32;96.32;55253.00;4879627;29;20948;-86
2021/04/22 02:58:57;;;;;;;25.90;6.10;;;2.60;99.90;;;-143.32;96.77;55265.13;4879518;29;20492;-87
2021/04/22 03:01:27;;;;;;;21.77;4.60;;;2.50;1.00;;;-143.32;96.38;55257.03;4879736;29;20463;-86
2021/04/22 03:03:54;;;;;;;36.50;4.63;;;2.50;1.00;;;-143.32;95.98;55263.09;4879512;29;20453;-88
2021/04/22 03:06:26;;;;;;;29.87;5.30;;;2.60;1.00;;;-143.32;95.93;55248.94;4879606;29;20489;-87
2021/04/22 03:08:53;;;;;;;23.00;5.83;;;2.50;99.90;;;-143.32;96.26;55265.13;4879632;29;20833;-87
2021/04/22 03:11:20;;;;;;;30.47;5.90;;;2.70;1.00;;;-143.32;96.64;55281.28;4879441;29;20490;-89
2021/04/22 03:13:47;;;;;;;29.47;5.13;;;2.60;16.60;;;-143.32;96.77;55253.00;4879502;29;20888;-87
2021/04/22 03:16:16;;;;;;;32.77;5.63;;;2.50;1.00;;;-143.32;96.46;55259.06;4879332;29;20471;-87
2021/04/22 03:18:46;;;;;;;31.50;7.63;;;2.40;1.00;;;-143.32;96.80;55255.00;4879348;29;20584;-89
2021/04/22 03:21:15;;;;;;;25.53;5.30;;;2.40;1.00;;;-143.32;96.67;55281.28;4879870;29;20477;-87
2021/04/22 03:23:42;;;;;;;25.60;5.83;;;2.50;99.90;;;-143.32;97.01;55232.78;4882418;29;20460;-86
2021/04/22 03:26:14;;;;;;;22.17;5.27;;;2.40;99.90;;;-143.32;97.03;55220.66;4882363;29;20465;-88
2021/04/22 03:28:41;;;;;;;22.23;5.53;;;2.40;13.60;;;-143.32;96.92;55269.16;4883368;29;20441;-87
2021/04/22 03:31:08;;;;;;;21.50;6.10;;;2.40;1.00;;;-143.32;97.33;55269.16;4883056;29;20457;-88
2021/04/22 03:33:36;;;;;;;40.57;6.57;;;2.40;1.00;;;-143.32;97.56;55250.97;4882729;29;20505;-88
2021/04/22 03:36:08;;;;;;;39.70;6.50;;;2.30;29.40;;;-143.32;97.44;55267.13;4882452;29;20505;-86
2021/04/22 03:38:34;;;;;;;28.63;5.57;;;2.30;1.00;;;-143.32;97.84;55265.13;4882085;29;21007;-89
2021/04/22 03:41:01;;;;;;;22.57;5.57;;;2.30;99.90;;;-143.32;97.99;55255.00;4882462;29;20842;-87
2021/04/22 03:43:28;;;;;;;28.40;5.37;;;2.30;1.00;;;-143.32;98.06;55283.31;4891997;29;20535;-89
2021/04/22 03:45:54;;;;;;;27.67;6.70;;;2.30;1.00;;;-143.32;98.33;55250.97;4901057;29;20452;-88
2021/04/22 03:48:21;;;;;;;23.87;5.70;;;2.30;99.90;;;-143.32;97.76;55269.16;4900996;29;20456;-90
2021/04/22 03:50:48;;;;;;;21.77;6.23;;;2.20;69.70;;;-143.32;97.64;55279.25;4900920;29;20460;-88
2021/04/22 03:53:15;;;;;;;33.63;7.33;;;2.30;1.00;;;-143.32;97.67;55244.91;4900485;29;20456;-88
2021/04/22 03:55:42;;;;;;;30.97;6.23;;;2.30;1.00;;;-143.32;98.31;55242.88;4900785;29;20452;-89
2021/04/22 03:58:08;;;;;;;23.83;6.10;;;2.20;1.00;;;-143.32;97.77;55257.03;4900452;29;20496;-89
2021/04/22 04:00:35;;;;;;;21.07;5.60;;;2.20;1.00;;;-143.32;97.91;55248.94;4900735;29;20495;-89
2021/04/22 04:03:02;;;;;;;32.97;6.87;;;2.20;99.90;;;-143.32;98.31;55259.06;4900728;29;20840;-91
2021/04/22 04:05:28;;;;;;;32.43;6.90;;;2.20;1.00;;;-143.32;97.96;55261.06;4900337;29;20831;-90
2021/04/22 04:07:55;;;;;;;21.00;5.30;;;2.20;1.00;;;-143.32;98.28;55244.91;4900269;29;20486;-89
2021/04/22 04:10:23;;;;;;;25.33;5.70;;;2.20;99.90;;;-143.32;98.28;55232.78;4881730;29;20465;-90
2021/04/22 04:12:50;;;;;;;21.47;7.20;;;2.20;99.90;;;-143.32;98.29;55259.06;4881858;29;20467;-90
2021/04/22 04:15:17;;;;;;;36.27;6.70;;;2.20;1.00;;;-143.32;97.94;55224.69;4881838;29;20848;-89
2021/04/22 04:17:43;;;;;;;36.63;7.80;;;2.20;1.00;;;-143.32;98.79;55228.75;4881406;29;20529;-89
2021/04/22 04:20:14;;;;;;;31.93;6.70;;;2.00;99.90;;;-143.32;98.86;55220.66;4881717;29;20464;-90
2021/04/22 04:22:41;;;;;;;33.23;6.40;;;2.20;1.00;;;-143.32;99.19;55218.63;4881817;29;20851;-91
2021/04/22 04:25:11;;;;;;;30.07;6.27;;;2.20;99.90;;;-143.32;98.63;55228.75;4883952;29;20555;-90
2021/04/22 04:27:39;;;;;;;32.53;6.43;;;2.20;1.00;;;-143.32;98.46;55240.88;4899952;29;20547;-89
2021/04/22 04:30:08;;;;;;;39.80;6.53;;;2.20;99.90;;;-143.32;98.28;55220.66;4900040;29;20452;-91
2021/04/22 04:32:35;;;;;;;36.93;6.83;;;2.30;99.90;;;-143.32;98.88;55220.66;4899424;29;20488;-90
2021/04/22 04:35:02;;;;;;;26.77;6.30;;;2.30;8.40;;;-143.32;98.71;55228.75;4900524;29;20501;-89
2021/04/22 04:37:28;;;;;;;31.10;6.90;;;2.20;99.90;;;-143.32;98.41;55198.44;4890700;29;20465;-89
2021/04/22 04:39:55;;;;;;;30.23;5.90;;;2.30;99.90;;;-143.32;98.58;55242.88;4881095;29;20511;-88
2021/04/22 04:42:21;;;;;;;21.23;6.53;;;2.30;1.00;;;-143.32;98.08;55212.56;4881071;29;20964;-91
2021/04/22 04:44:49;;;;;;;38.83;8.03;;;2.30;99.90;;;-143.32;98.14;55194.38;4881260;29;20484;-89
2021/04/22 04:47:18;;;;;;;47.33;6.90;;;2.30;99.90;;;-143.32;98.54;55198.44;4896920;29;20452;-88
2021/04/22 04:49:45;;;;;;;21.43;6.40;;;2.30;1.00;;;-143.32;98.42;55206.50;4899515;29;20542;-87
2021/04/22 04:52:12;;;;;;;25.20;7.00;;;2.30;1.00;;;-143.32;98.60;55192.38;4899696;29;20444;-88
2021/04/22 04:54:38;;;;;;;35.10;7.10;;;2.40;1.00;;;-143.32;98.26;55184.28;4899316;29;20482;-90
2021/04/22 04:57:08;;;;;;;29.47;6.87;;;2.40;1.00;;;-143.32;97.76;55210.56;4899443;29;20987;-88
2021/04/22 04:59:34;;;;;;;43.73;7.70;;;2.40;99.90;;;-143.32;98.06;55186.31;4899261;29;20498;-88
2021/04/22 05:02:02;;;;;;;27.20;6.67;;;2.50;1.00;;;-143.32;98.01;55224.69;4893568;29;20485;-89
2021/04/22 05:04:29;;;;;;;33.93;6.37;;;2.50;1.00;;;-143.32;97.60;55212.56;4880913;29;20489;-88
2021/04/22 07:49:17;;;;;;;15.27;3.83;;;8.70;99.90;;;-143.32;68.64;55038.78;4760740;30;20965;-92
2021/04/22 07:52:15;;;;;;;21.43;4.50;;;8.70;99.90;;;-143.32;66.95;55065.06;4789737;29;20462;-90
2021/04/22 07:55:05;;;;;;;13.73;3.60;;;8.70;99.90;;;-143.32;67.08;55083.25;4798674;29;20490;-92
2021/04/22 07:57:40;;;;;;;32.47;3.97;;;8.70;99.90;;;-143.32;63.86;55061.00;4849786;29;20826;-88
2021/04/22 08:07:13;;;;;;;13.23;3.73;;;8.80;99.90;;;-143.32;65.71;55065.06;4901507;29;20558;-92
2021/04/22 08:09:43;;;;;;;18.73;4.20;;;9.00;99.90;;;-143.32;65.79;54994.34;4907459;29;20468;-90
2021/04/22 08:22:54;;;;;;;17.47;4.70;;;9.60;99.90;;;-143.32;61.56;54970.09;4920819;29;20427;-87
2021/04/22 08:25:28;;;;;;;17.10;3.53;;;9.90;99.90;;;-143.32;60.55;54984.22;4919574;29;20826;-91
2021/04/22 08:28:00;;;;;;;15.20;4.33;;;10.10;99.90;;;-143.32;62.46;55022.63;4927969;29;20420;-93
2021/04/22 08:30:31;;;;;;;14.83;4.33;;;9.60;99.90;;;-143.32;63.14;55028.69;4922422;29;20474;-93
2021/04/22 08:33:08;;;;;;;18.37;4.77;;;9.30;99.90;;;-143.32;61.59;55012.53;4920882;29;20451;-92
2021/04/22 08:35:50;;;;;;;14.13;3.83;;;9.80;99.90;;;-143.32;57.47;54939.78;4920665;29;20449;-93
2021/04/22 08:38:22;;;;;;;9.77;4.07;;;10.50;99.90;;;-143.32;56.52;54927.66;4920814;29;20502;-92
2021/04/22 08:40:58;;;;;;;16.10;4.67;;;10.80;99.90;;;-143.32;54.96;54959.97;4921163;29;20474;-93
2021/04/22 08:43:32;;;;;;;17.23;4.30;;;10.90;99.90;;;-143.32;59.02;54998.38;4923079;29;20467;-93
2021/04/22 08:46:16;;;;;;;15.33;4.23;;;10.50;99.90;;;-143.32;59.88;55028.69;4927209;29;20570;-92
2021/04/22 08:48:46;;;;;;;21.10;4.30;;;10.10;99.90;;;-143.32;62.66;55040.81;4919312;29;20439;-90
2021/04/22 08:51:14;;;;;;;18.17;5.07;;;9.80;99.90;;;-143.32;63.85;55038.78;4919428;29;20491;-92
2021/04/22 08:53:47;;;;;;;23.33;4.70;;;9.50;99.90;;;-143.32;63.50;55008.47;4920320;29;20439;-93
2021/04/22 08:56:27;;;;;;;16.43;3.67;;;9.50;99.90;;;-143.32;58.04;55006.47;4922450;29;20451;-92
2021/04/22 09:05:17;;;;;;;12.53;3.47;;;10.00;99.90;;;-143.32;51.71;55061.00;4908821;29;20934;-93
2021/04/22 09:07:44;;;;;;;21.90;4.57;;;10.20;99.90;;;-143.32;52.01;55046.88;4904341;29;20425;-93
2021/04/22 09:10:24;;;;;;;8.90;3.57;;;10.30;99.90;;;-143.32;53.19;55087.28;4903988;29;20456;-90
2021/04/22 09:15:41;;;;;;;15.60;3.80;;;9.90;99.90;;;-143.32;54.85;55079.19;4963493;23;20571;-90
2021/04/22 09:18:26;;;;;;;12.60;3.57;;;9.80;99.90;;;-143.32;54.55;55085.25;4903622;29;20480;-92
2021/04/22 09:40:23;;;;;;;16.43;4.07;;;10.50;99.90;;;-143.32;55.25;55038.78;5315200;23;20590;-93
2021/04/22 09:43:03;;;;;;;21.67;4.10;;;10.30;99.90;;;-143.32;55.33;55046.88;4904270;29;20441;-88
2021/04/22 09:45:58;;;;;;;13.90;3.40;;;10.20;99.90;;;-143.32;56.22;55028.69;4901909;29;20975;-90
2021/04/22 09:48:36;;;;;;;15.80;4.10;;;10.10;99.90;;;-143.32;54.98;55038.78;4899542;29;20424;-92
2021/04/22 09:51:13;;;;;;;21.07;4.00;;;9.90;99.90;;;-143.32;55.39;55059.00;4898583;29;20448;-90
2021/04/22 09:53:40;;;;;;;21.70;4.90;;;10.00;99.90;;;-143.32;53.91;55054.94;4900159;29;20429;-90
2021/04/22 09:56:17;;;;;;;17.97;3.73;;;10.20;99.90;;;-143.32;55.31;55054.94;4898647;29;20994;-89
2021/04/22 09:59:00;;;;;;;15.53;3.70;;;10.20;99.90;;;-143.32;54.91;55022.63;4899612;29;20487;-89
2021/04/22 10:01:27;;;;;;;10.23;3.53;;;10.00;99.90;;;-143.32;54.39;55093.34;4899261;29;20947;-89
2021/04/22 10:03:54;;;;;;;18.80;3.87;;;9.90;99.90;;;-143.32;58.21;55059.00;4899193;29;20460;-91
2021/04/22 10:06:27;;;;;;;23.00;4.20;;;9.70;99.90;;;-143.32;57.44;55065.06;4899454;29;20539;-92
2021/04/22 10:08:54;;;;;;;16.40;3.60;;;9.60;99.90;;;-143.32;57.23;55075.16;4899253;29;20475;-90
2021/04/22 10:11:27;;;;;;;11.93;4.07;;;9.60;99.90;;;-143.32;57.70;55063.03;4898846;29;20470;-91
2021/04/22 10:13:57;;;;;;;20.03;4.90;;;9.50;99.90;;;-143.32;57.89;55032.72;4899504;29;20421;-89
2021/04/22 10:16:35;;;;;;;14.23;3.23;;;9.70;99.90;;;-143.32;54.73;55069.09;4898276;29;20962;-88
2021/04/22 10:22:56;;;;;;;16.50;4.33;;;9.90;99.90;;;-143.32;58.90;55026.66;4898555;29;20959;-92
2021/04/22 10:57:37;;;;;;;24.67;4.17;;;10.10;99.90;;;-143.32;53.09;55028.69;4888936;29;20483;-92
2021/04/22 11:00:15;;;;;;;10.57;3.70;;;10.20;99.90;;;-143.32;53.82;55065.06;4889046;29;20484;-91
2021/04/22 11:02:57;;;;;;;16.77;5.10;;;10.20;99.90;;;-143.32;53.47;55030.72;4885792;29;20493;-91
2021/04/22 11:05:27;;;;;;;20.33;4.60;;;10.30;99.90;;;-143.32;52.50;55040.81;4885619;29;20916;-92
2021/04/22 11:08:07;;;;;;;14.43;3.67;;;10.30;99.90;;;-143.32;51.27;55040.81;4885739;29;20905;-93
2021/04/22 11:17:40;;;;;;;13.63;4.57;;;10.60;99.90;;;-143.32;51.14;55052.94;4840660;29;20853;-91
2021/04/22 11:56:27;;;;;;;14.30;3.70;;;10.70;99.90;;;-143.32;51.81;55012.53;5378709;23;20518;-88
2021/04/22 11:58:54;;;;;;;10.53;3.93;;;10.70;99.90;;;-143.32;52.30;55026.66;4900536;29;20579;-88
2021/04/22 12:01:21;;;;;;;14.67;4.63;;;10.60;99.90;;;-143.32;50.90;55018.59;4901090;29;20903;-88
2021/04/22 12:03:48;;;;;;;20.63;4.80;;;10.60;99.90;;;-143.32;52.43;55012.53;4900611;29;20464;-90
2021/04/22 12:06:17;;;;;;;20.90;4.30;;;10.80;99.90;;;-143.32;51.45;55014.53;4901785;29;20452;-90
2021/04/22 12:08:48;;;;;;;8.20;4.30;;;10.80;99.90;;;-143.32;51.49;55026.66;4900927;29;20447;-87
2021/04/22 12:11:18;;;;;;;14.30;4.47;;;10.90;99.90;;;-143.32;49.67;54996.34;4900987;29;20437;-87
2021/04/22 12:13:48;;;;;;;9.93;4.00;;;10.90;99.90;;;-143.32;50.05;55026.66;4900671;29;20467;-88
2021/04/22 12:16:15;;;;;;;17.60;5.27;;;10.90;99.90;;;-143.32;51.72;54982.22;4900282;29;20877;-89
2021/04/22 12:18:44;;;;;;;13.43;5.17;;;11.00;99.90;;;-143.32;52.31;54959.97;4900271;29;20825;-89
2021/04/22 12:34:13;;;;;;;17.13;4.40;;;11.40;99.90;;;-143.32;50.18;54976.16;4894209;29;20469;-91
2021/04/22 12:39:29;;;;;;;16.43;4.67;;;11.50;99.90;;;-143.32;50.68;54998.38;5794165;23;20487;-92
2021/04/22 12:42:21;;;;;;;18.27;4.37;;;11.40;99.90;;;-143.32;48.90;54990.28;4912519;29;20439;-91
2021/04/22 12:47:39;;;;;;;17.00;3.97;;;11.30;99.90;;;-143.32;49.66;55000.41;5099386;23;20816;-85
2021/04/22 12:50:11;;;;;;;11.23;4.90;;;11.20;99.90;;;-143.32;48.41;55018.59;4899515;29;20492;-85
2021/04/22 12:52:42;;;;;;;11.30;4.50;;;11.20;99.90;;;-143.32;48.31;54978.16;4912192;29;20496;-91
2021/04/22 12:55:35;;;;;;;10.60;4.23;;;11.20;99.90;;;-143.32;46.86;54990.28;4913319;29;20428;-91
2021/04/22 13:03:26;;;;;;;19.10;4.50;;;11.00;99.90;;;-143.32;48.19;55028.69;5141074;23;20491;-92
2021/04/22 13:05:59;;;;;;;14.00;4.90;;;11.10;99.90;;;-143.32;48.73;55008.47;4897950;29;20464;-88
2021/04/22 13:08:27;;;;;;;12.50;4.60;;;11.20;99.90;;;-143.32;50.13;55008.47;4886287;29;20437;-89
2021/04/22 13:10:55;;;;;;;13.50;4.10;;;11.20;99.90;;;-143.32;49.59;55000.41;4880480;29;20449;-88
2021/04/22 13:13:26;;;;;;;10.90;4.60;;;11.20;99.90;;;-143.32;48.84;54986.25;4880308;29;20483;-90
2021/04/22 13:15:54;;;;;;;12.33;4.63;;;11.30;99.90;;;-143.32;49.34;54982.22;4881751;29;20751;-88
2021/04/22 13:18:23;;;;;;;13.50;5.10;;;11.20;99.90;;;-143.32;51.12;54980.19;4880412;29;20564;-89
2021/04/22 13:20:54;;;;;;;13.00;5.10;;;11.40;99.90;;;-143.32;49.47;54984.22;4884188;29;20453;-91
2021/04/22 13:23:34;;;;;;;8.53;4.10;;;11.40;99.90;;;-143.32;49.45;54996.34;4883761;29;20434;-91
2021/04/22 13:26:18;;;;;;;18.30;4.70;;;11.40;99.90;;;-143.32;49.89;54966.03;4888547;29;20513;-89
2021/04/22 13:28:45;;;;;;;11.30;4.90;;;11.50;99.90;;;-143.32;50.50;54962.00;4881437;29;20440;-94
2021/04/22 13:31:16;;;;;;;16.03;4.67;;;11.60;99.90;;;-143.32;49.36;54947.84;4892335;29;20456;-93
2021/04/22 13:33:46;;;;;;;12.03;5.83;;;11.70;99.90;;;-143.32;48.55;54968.06;4890801;29;20449;-93
2021/04/22 13:36:23;;;;;;;11.13;4.67;;;11.70;99.90;;;-143.32;50.65;54974.13;4892677;29;20441;-92
2021/04/22 13:45:09;;;;;;;8.83;4.20;;;11.80;99.90;;;-143.32;46.37;54980.19;5681478;23;20543;-90
2021/04/22 13:47:42;;;;;;;6.83;4.17;;;11.70;99.90;;;-143.32;46.63;54990.28;4879359;29;20464;-89
2021/04/22 13:50:32;;;;;;;10.70;4.80;;;11.60;99.90;;;-143.32;47.42;54978.16;4879489;29;20928;-89
2021/04/22 13:53:06;;;;;;;13.80;5.03;;;11.60;99.90;;;-143.32;47.65;54957.97;4879416;29;20556;-87
2021/04/22 13:55:51;;;;;;;16.70;4.87;;;11.80;99.90;;;-143.32;48.18;54941.78;4880802;29;20465;-88
2021/04/22 14:02:19;;;;;;;14.37;4.90;;;11.90;99.90;;;-143.32;45.50;54968.06;5015338;23;20513;-93
2021/04/22 14:08:37;;;;;;;22.33;4.63;;;11.80;99.90;;;-143.32;49.24;55012.53;4926956;29;20432;-94
2021/04/22 14:13:50;;;;;;;25.27;4.80;;;11.60;99.90;;;-143.32;48.95;54966.03;4973819;23;20511;-93
2021/04/22 14:16:23;;;;;;;10.43;4.43;;;11.70;99.90;;;-143.32;48.36;54990.28;4899685;29;20471;-91
2021/04/22 14:19:21;;;;;;;16.60;5.13;;;11.70;99.90;;;-143.32;48.17;54953.91;4899029;29;20975;-89
2021/04/22 14:21:48;;;;;;;13.30;4.90;;;11.70;99.90;;;-143.32;47.92;54959.97;4897634;29;20511;-90
2021/04/22 14:24:16;;;;;;;13.43;5.33;;;11.90;99.90;;;-143.32;47.82;54964.03;4898816;29;20503;-90
2021/04/22 14:26:45;;;;;;;14.90;4.80;;;11.80;99.90;;;-143.32;49.33;54947.84;4898920;29;20456;-91
2021/04/22 14:29:13;;;;;;;17.60;5.40;;;11.80;99.90;;;-143.32;48.43;54982.22;4882308;29;20461;-91
2021/04/22 14:31:41;;;;;;;14.37;4.50;;;11.90;99.90;;;-143.32;48.25;54927.66;4890343;29;20467;-89
2021/04/22 14:37:28;;;;;;;13.77;5.07;;;12.00;99.90;;;-143.32;48.70;54915.53;4900339;29;20961;-91
2021/04/22 14:40:31;;;;;;;14.37;4.90;;;12.00;99.90;;;-143.32;47.67;54933.72;4899062;29;20578;-92
2021/04/22 14:42:59;;;;;;;10.87;4.50;;;12.10;99.90;;;-143.32;46.99;54970.09;4898593;29;20464;-90
2021/04/22 14:45:26;;;;;;;13.23;5.17;;;12.10;99.90;;;-143.32;48.45;54959.97;4908970;29;20452;-88
2021/04/22 14:51:35;;;;;;;10.80;4.57;;;11.80;99.90;;;-143.32;49.11;54939.78;4879495;29;20469;-91
2021/04/22 14:54:03;;;;;;;10.00;4.47;;;11.80;99.90;;;-143.32;49.37;54974.13;4879657;29;20449;-90
2021/04/22 14:56:31;;;;;;;11.83;4.90;;;11.90;99.90;;;-143.32;49.42;54935.72;4879327;29;20479;-88
2021/04/22 14:58:57;;;;;;;17.40;5.07;;;12.00;99.90;;;-143.32;48.99;54921.59;4879100;29;20500;-89
2021/04/22 15:01:27;;;;;;;12.47;4.60;;;12.20;99.90;;;-143.32;47.27;54943.81;4892972;29;20466;-91
2021/04/22 15:04:19;;;;;;;11.27;4.50;;;12.20;99.90;;;-143.32;48.78;54941.78;4901251;29;20458;-90
2021/04/22 15:06:49;;;;;;;7.70;4.10;;;12.10;99.90;;;-143.32;48.83;54943.81;4900857;29;20417;-89
2021/04/22 15:09:42;;;;;;;15.70;4.10;;;12.00;99.90;;;-143.32;48.77;54935.72;4903922;29;20432;-92
2021/04/22 15:22:25;;;;;;;13.17;4.30;;;12.00;99.90;;;-143.32;49.57;54953.91;4901983;29;20464;-89
2021/04/22 15:24:55;;;;;;;14.00;4.50;;;11.80;99.90;;;-143.32;49.61;54980.19;4902394;29;20462;-90
2021/04/22 15:27:23;;;;;;;9.43;3.90;;;11.90;99.90;;;-143.32;48.34;54957.97;4896925;29;20464;-90
2021/04/22 15:30:09;;;;;;;10.43;4.17;;;11.90;99.90;;;-143.32;49.68;54937.75;4882789;29;20460;-89
2021/04/22 15:32:46;;;;;;;7.77;3.53;;;11.90;99.90;;;-143.32;50.46;54935.72;4914515;29;20834;-87
2021/04/22 15:35:14;;;;;;;14.67;4.10;;;12.00;99.90;;;-143.32;48.33;54945.84;4920361;29;20546;-86
2021/04/22 15:41:35;;;;;;;12.43;4.27;;;11.80;99.90;;;-143.32;50.33;54945.84;4906571;29;20420;-91
2021/04/22 15:44:11;;;;;;;12.47;4.07;;;11.90;99.90;;;-143.32;50.86;54933.72;4906908;29;20432;-89
2021/04/22 15:46:44;;;;;;;9.97;4.30;;;12.00;99.90;;;-143.32;50.82;54945.84;4907096;29;20444;-89
2021/04/22 15:49:28;;;;;;;11.73;4.33;;;12.00;99.90;;;-143.32;51.16;54933.72;4906504;29;20499;-92
2021/04/22 15:52:12;;;;;;;;;;;;;;;;;;;;;
2021/04/22 15:54:42;;;;;;;14.83;4.87;;;11.90;99.90;;;-143.32;52.08;54943.81;4904383;29;20445;-88
2021/04/22 15:57:26;;;;;;;13.90;4.87;;;11.80;99.90;;;-143.32;53.15;54947.84;4904723;29;20448;-91
2021/04/22 15:59:56;;;;;;;8.77;4.97;;;11.70;99.90;;;-143.32;51.89;54988.28;4906045;29;20487;-91
2021/04/22 16:02:22;;;;;;;13.50;3.97;;;11.60;99.90;;;-143.32;52.16;54949.88;4899453;29;20444;-92
2021/04/22 16:04:50;;;;;;;10.73;4.17;;;11.60;99.90;;;-143.32;51.02;54962.00;4905648;29;20448;-89
2021/04/22 16:07:17;;;;;;;8.33;3.53;;;11.60;99.90;;;-143.32;51.09;54925.63;4887250;29;20992;-92
2021/04/22 16:10:20;;;;;;;9.53;3.47;;;11.70;99.90;;;-143.32;50.98;54951.91;4887326;29;20449;-91
2021/04/22 16:12:46;;;;;;;7.83;3.83;;;11.70;99.90;;;-143.32;49.89;54968.06;4903428;29;20456;-88
2021/04/22 16:15:15;;;;;;;8.60;3.53;;;11.70;99.90;;;-143.32;50.42;54935.72;4901236;29;20507;-90
2021/04/22 16:17:42;;;;;;;8.63;3.57;;;11.80;99.90;;;-143.32;50.60;54931.69;4902840;29;20452;-86